createdAt,value
2023-03-26T00:00:30.090Z,10.05
2023-03-26T00:02:34.837Z,10.04
2023-03-26T00:04:39.655Z,10.05
2023-03-26T00:06:44.399Z,10.05
2023-03-26T00:08:49.701Z,10.06
2023-03-26T00:10:54.380Z,10.06
2023-03-26T00:12:59.042Z,10.06
2023-03-26T00:15:04.107Z,10.05
2023-03-26T00:17:08.780Z,10.04
2023-03-26T00:19:13.644Z,10.05
2023-03-26T00:21:21.549Z,10.04
2023-03-26T00:23:26.691Z,10.04
2023-03-26T00:25:31.404Z,10.05
2023-03-26T00:27:36.086Z,10.06
2023-03-26T00:29:40.886Z,10.07
2023-03-26T00:31:45.630Z,10.07
2023-03-26T00:33:52.827Z,10.08
2023-03-26T00:35:59.215Z,10.10
2023-03-26T00:38:04.128Z,10.12
2023-03-26T00:40:12.907Z,10.14
2023-03-26T00:42:17.649Z,10.16
2023-03-26T00:44:23.120Z,10.16
2023-03-26T00:46:29.708Z,10.17
2023-03-26T00:48:44.548Z,10.15
2023-03-26T00:50:51.130Z,10.16
2023-03-26T00:52:55.815Z,10.18
2023-03-26T00:55:00.700Z,10.19
2023-03-26T00:57:05.465Z,10.20
2023-03-26T00:59:10.266Z,10.23
2023-03-26T01:01:17.665Z,10.25
2023-03-26T01:03:27.480Z,10.26
2023-03-26T01:05:48.169Z,10.30
2023-03-26T01:07:52.890Z,10.33
2023-03-26T01:10:00.065Z,10.33
2023-03-26T01:12:08.583Z,10.36
2023-03-26T01:14:18.387Z,10.37
2023-03-26T01:16:27.719Z,10.38
2023-03-26T01:18:34.059Z,10.41
2023-03-26T01:20:43.761Z,10.40
2023-03-26T01:22:52.415Z,10.42
2023-03-26T01:24:57.053Z,10.43
2023-03-26T01:27:18.422Z,10.45
2023-03-26T01:29:30.678Z,10.46
2023-03-26T01:31:41.942Z,10.47
2023-03-26T01:33:55.115Z,10.46
2023-03-26T01:36:05.896Z,10.46
2023-03-26T01:38:23.128Z,10.46
2023-03-26T01:40:34.352Z,10.47
2023-03-26T01:42:45.873Z,10.47
2023-03-26T01:44:57.712Z,10.47
2023-03-26T01:47:03.376Z,10.48
2023-03-26T01:49:08.127Z,10.51
2023-03-26T01:51:14.065Z,10.54
2023-03-26T01:53:18.781Z,10.55
2023-03-26T01:55:28.220Z,10.58
2023-03-26T01:57:38.959Z,10.61
2023-03-26T01:59:58.735Z,10.63
2023-03-26T02:02:11.657Z,10.66
2023-03-26T02:04:24.719Z,10.68
2023-03-26T02:06:35.996Z,10.71
2023-03-26T02:08:45.411Z,10.72
2023-03-26T02:10:54.882Z,10.75
2023-03-26T02:13:00.655Z,10.78
2023-03-26T02:15:07.480Z,10.79
2023-03-26T02:17:12.450Z,10.78
2023-03-26T02:19:17.195Z,10.78
2023-03-26T02:21:26.582Z,10.76
2023-03-26T02:23:31.872Z,10.72
2023-03-26T02:25:36.602Z,10.70
2023-03-26T02:27:41.781Z,10.68
2023-03-26T02:29:48.177Z,10.64
2023-03-26T02:31:53.294Z,10.61
2023-03-26T02:33:58.140Z,10.58
2023-03-26T02:36:03.835Z,10.55
2023-03-26T02:38:08.630Z,10.54
2023-03-26T02:40:13.428Z,10.51
2023-03-26T02:42:19.945Z,10.48
2023-03-26T02:44:27.295Z,10.46
2023-03-26T02:46:52.163Z,10.46
2023-03-26T02:49:17.041Z,10.45
2023-03-26T02:51:22.081Z,10.42
2023-03-26T02:53:39.653Z,10.44
2023-03-26T02:56:07.484Z,10.43
2023-03-26T02:58:16.832Z,10.42
2023-03-26T03:00:21.928Z,10.42
2023-03-26T03:02:32.513Z,10.41
2023-03-26T03:04:46.251Z,10.38
2023-03-26T03:06:50.912Z,10.38
2023-03-26T03:08:55.640Z,10.38
2023-03-26T03:11:21.186Z,10.36
2023-03-26T03:13:27.789Z,10.36
2023-03-26T03:15:33.129Z,10.38
2023-03-26T03:17:37.816Z,10.41
2023-03-26T03:19:42.588Z,10.42
2023-03-26T03:21:47.290Z,10.41
2023-03-26T03:23:52.344Z,10.40
2023-03-26T03:25:58.633Z,10.40
2023-03-26T03:28:03.697Z,10.38
2023-03-26T03:30:13.308Z,10.37
2023-03-26T03:32:40.296Z,10.37
2023-03-26T03:34:45.265Z,10.37
2023-03-26T03:36:50.066Z,10.37
2023-03-26T03:39:07.450Z,10.36
2023-03-26T03:41:12.986Z,10.36
2023-03-26T03:43:19.276Z,10.34
2023-03-26T03:45:34.827Z,10.35
2023-03-26T03:47:46.294Z,10.37
2023-03-26T03:49:51.911Z,10.37
2023-03-26T03:51:56.575Z,10.38
2023-03-26T03:54:06.496Z,10.38
2023-03-26T03:56:31.698Z,10.39
2023-03-26T03:58:59.561Z,10.37
2023-03-26T04:01:10.504Z,10.39
2023-03-26T04:03:33.871Z,10.38
2023-03-26T04:05:40.633Z,10.40
2023-03-26T04:07:45.356Z,10.42
2023-03-26T04:10:05.799Z,10.41
2023-03-26T04:12:29.849Z,10.43
2023-03-26T04:14:41.889Z,10.45
2023-03-26T04:16:50.880Z,10.46
2023-03-26T04:18:55.787Z,10.47
2023-03-26T04:21:00.482Z,10.49
2023-03-26T04:23:05.357Z,10.49
2023-03-26T04:25:12.308Z,10.49
2023-03-26T04:27:33.012Z,10.50
2023-03-26T04:29:56.066Z,10.51
2023-03-26T04:32:03.969Z,10.48
2023-03-26T04:34:14.541Z,10.50
2023-03-26T04:36:29.206Z,10.50
2023-03-26T04:38:39.920Z,10.49
2023-03-26T04:40:45.164Z,10.49
2023-03-26T04:42:55.803Z,10.50
2023-03-26T04:45:10.703Z,10.50
2023-03-26T04:47:18.658Z,10.50
2023-03-26T04:49:24.128Z,10.50
2023-03-26T04:51:35.510Z,10.50
2023-03-26T04:53:40.717Z,10.52
2023-03-26T04:56:32.287Z,10.52
2023-03-26T04:58:50.622Z,10.54
2023-03-26T05:00:55.955Z,10.55
2023-03-26T05:03:00.684Z,10.56
2023-03-26T05:05:06.229Z,10.57
2023-03-26T05:07:19.537Z,10.59
2023-03-26T05:09:27.480Z,10.60
2023-03-26T05:11:58.170Z,10.60
2023-03-26T05:14:03.192Z,10.61
2023-03-26T05:16:09.149Z,10.62
2023-03-26T05:18:17.444Z,10.62
2023-03-26T05:20:27.512Z,10.63
2023-03-26T05:22:32.338Z,10.66
2023-03-26T05:25:00.221Z,10.68
2023-03-26T05:27:04.960Z,10.68
2023-03-26T05:29:09.895Z,10.71
2023-03-26T05:31:21.837Z,10.71
2023-03-26T05:33:28.771Z,10.72
2023-03-26T05:36:01.326Z,10.75
2023-03-26T05:38:07.202Z,10.75
2023-03-26T05:40:14.165Z,10.76
2023-03-26T05:42:23.599Z,10.78
2023-03-26T05:44:46.941Z,10.79
2023-03-26T05:46:57.292Z,10.80
2023-03-26T05:49:03.797Z,10.82
2023-03-26T05:51:28.989Z,10.84
2023-03-26T05:53:53.940Z,10.89
2023-03-26T05:56:31.000Z,10.95
2023-03-26T05:58:36.279Z,10.97
2023-03-26T06:01:01.448Z,10.96
2023-03-26T06:03:09.794Z,10.97
2023-03-26T06:05:35.836Z,10.97
2023-03-26T06:07:48.309Z,10.95
2023-03-26T06:09:56.336Z,10.94
2023-03-26T06:12:01.006Z,10.93
2023-03-26T06:14:08.158Z,10.94
2023-03-26T06:16:26.550Z,10.97
2023-03-26T06:18:35.517Z,11.06
2023-03-26T06:21:00.491Z,11.10
2023-03-26T06:23:15.877Z,11.10
2023-03-26T06:25:42.862Z,11.09
2023-03-26T06:28:13.723Z,11.14
2023-03-26T06:30:28.866Z,11.20
2023-03-26T06:32:45.599Z,11.26
2023-03-26T06:34:59.223Z,11.37
2023-03-26T06:37:03.861Z,11.45
2023-03-26T06:39:08.796Z,11.51
2023-03-26T06:41:17.343Z,11.52
2023-03-26T06:43:54.033Z,11.55
2023-03-26T06:46:19.259Z,11.63
2023-03-26T06:48:42.788Z,11.72
2023-03-26T06:51:06.070Z,11.85
2023-03-26T06:53:30.977Z,11.97
2023-03-26T06:55:48.798Z,12.03
2023-03-26T06:58:16.331Z,12.08
2023-03-26T07:00:39.317Z,12.11
2023-03-26T07:03:04.589Z,12.16
2023-03-26T07:05:28.144Z,12.20
2023-03-26T07:08:07.651Z,12.22
2023-03-26T07:10:30.636Z,12.21
2023-03-26T07:13:04.446Z,12.19
2023-03-26T07:15:31.712Z,12.18
2023-03-26T07:17:56.107Z,12.21
2023-03-26T07:20:04.955Z,12.24
2023-03-26T07:22:19.032Z,12.25
2023-03-26T07:24:44.898Z,12.28
2023-03-26T07:27:19.672Z,12.30
2023-03-26T07:29:32.311Z,12.31
2023-03-26T07:32:03.834Z,12.33
2023-03-26T07:34:44.923Z,12.32
2023-03-26T07:37:27.433Z,12.32
2023-03-26T07:39:44.962Z,12.36
2023-03-26T07:42:26.314Z,12.38
2023-03-26T07:44:57.771Z,12.43
2023-03-26T07:47:26.619Z,12.52
2023-03-26T07:49:55.530Z,12.61
2023-03-26T07:52:24.722Z,12.66
2023-03-26T07:54:54.471Z,12.72
2023-03-26T07:57:28.232Z,12.76
2023-03-26T08:00:01.173Z,12.87
2023-03-26T08:02:37.893Z,12.98
2023-03-26T08:05:23.393Z,13.06
2023-03-26T08:08:08.516Z,13.08
2023-03-26T08:10:26.226Z,13.13
2023-03-26T08:12:53.318Z,13.23
2023-03-26T08:15:08.713Z,13.32
2023-03-26T08:17:17.402Z,13.35
2023-03-26T08:19:35.214Z,13.37
2023-03-26T08:21:45.107Z,13.41
2023-03-26T08:23:58.629Z,13.46
2023-03-26T08:26:11.787Z,13.55
2023-03-26T08:28:27.623Z,13.66
2023-03-26T08:30:33.155Z,13.76
2023-03-26T08:32:38.629Z,13.75
2023-03-26T08:34:43.316Z,13.69
2023-03-26T08:36:48.042Z,13.69
2023-03-26T08:38:52.701Z,13.68
2023-03-26T08:41:35.782Z,13.66
2023-03-26T08:44:00.814Z,13.70
2023-03-26T08:46:28.226Z,13.71
2023-03-26T08:48:54.147Z,13.78
2023-03-26T08:51:37.484Z,13.86
2023-03-26T08:54:09.022Z,13.92
2023-03-26T08:56:24.413Z,13.96
2023-03-26T08:59:16.328Z,14.02
2023-03-26T09:01:35.483Z,14.09
2023-03-26T09:04:04.271Z,14.20
2023-03-26T09:06:29.508Z,14.28
2023-03-26T09:09:19.276Z,14.36
2023-03-26T09:11:50.978Z,14.40
2023-03-26T09:14:28.839Z,14.51
2023-03-26T09:17:03.152Z,14.61
2023-03-26T09:19:42.492Z,14.65
2023-03-26T09:22:13.738Z,14.60
2023-03-26T09:24:40.800Z,14.58
2023-03-26T09:26:56.382Z,14.64
2023-03-26T09:32:38.661Z,14.79
2023-03-26T09:35:02.567Z,14.85
2023-03-26T09:37:27.858Z,14.92
2023-03-26T09:39:52.524Z,14.99
2023-03-26T09:42:08.007Z,15.07
2023-03-26T09:44:38.777Z,15.16
2023-03-26T09:46:49.812Z,15.18
2023-03-26T09:49:09.587Z,15.16
2023-03-26T09:51:38.899Z,15.26
2023-03-26T09:54:12.652Z,15.34
2023-03-26T09:56:27.223Z,15.48
2023-03-26T09:58:51.829Z,15.59
2023-03-26T10:01:01.739Z,15.73
2023-03-26T10:03:19.197Z,15.86
2023-03-26T10:05:50.920Z,15.96
2023-03-26T10:08:11.728Z,16.11
2023-03-26T10:10:25.027Z,16.28
2023-03-26T10:12:34.625Z,16.34
2023-03-26T10:14:41.946Z,16.39
2023-03-26T10:16:55.091Z,16.39
2023-03-26T10:19:16.169Z,16.49
2023-03-26T10:21:29.228Z,16.65
2023-03-26T10:23:57.471Z,16.79
2023-03-26T10:26:22.941Z,16.92
2023-03-26T10:28:56.667Z,17.00
2023-03-26T10:31:15.858Z,17.02
2023-03-26T10:33:30.094Z,17.07
2023-03-26T10:35:46.081Z,17.14
2023-03-26T10:38:07.982Z,17.26
2023-03-26T10:40:21.263Z,17.37
2023-03-26T10:42:42.829Z,17.44
2023-03-26T10:45:18.057Z,17.52
2023-03-26T10:47:43.549Z,17.58
2023-03-26T10:50:02.081Z,17.65
2023-03-26T10:52:07.360Z,17.72
2023-03-26T10:54:22.336Z,17.77
2023-03-26T10:56:28.951Z,17.83
2023-03-26T10:58:48.783Z,17.92
2023-03-26T11:00:58.723Z,17.97
2023-03-26T11:03:18.165Z,17.98
2023-03-26T11:05:35.489Z,18.01
2023-03-26T11:07:46.448Z,18.05
2023-03-26T11:09:56.808Z,18.10
2023-03-26T11:12:26.569Z,18.19
2023-03-26T11:14:40.395Z,18.19
2023-03-26T11:17:03.679Z,18.24
2023-03-26T11:19:15.866Z,18.32
2023-03-26T11:21:23.920Z,18.39
2023-03-26T11:23:35.172Z,18.34
2023-03-26T11:26:01.650Z,18.31
2023-03-26T11:28:21.109Z,18.38
2023-03-26T11:30:35.429Z,18.50
2023-03-26T11:32:44.011Z,18.59
2023-03-26T11:34:57.826Z,18.65
2023-03-26T11:37:04.764Z,18.68
2023-03-26T11:39:13.100Z,18.77
2023-03-26T11:41:22.948Z,18.80
2023-03-26T11:43:53.123Z,18.91
2023-03-26T11:45:56.601Z,18.98
2023-03-26T11:48:07.999Z,18.87
2023-03-26T11:50:18.025Z,18.80
2023-03-26T11:52:21.193Z,18.68
2023-03-26T11:54:23.975Z,18.60
2023-03-26T11:56:30.811Z,18.58
2023-03-26T11:58:39.859Z,18.65
2023-03-26T12:00:43.322Z,18.65
2023-03-26T12:02:47.394Z,18.61
2023-03-26T12:05:02.381Z,18.56
2023-03-26T12:07:13.582Z,18.56
2023-03-26T12:09:18.440Z,18.60
2023-03-26T12:11:26.150Z,18.58
2023-03-26T12:13:35.095Z,18.57
2023-03-26T12:15:43.345Z,18.61
2023-03-26T12:17:47.163Z,18.63
2023-03-26T12:19:52.915Z,18.71
2023-03-26T12:21:58.004Z,18.78
2023-03-26T12:24:04.989Z,18.86
2023-03-26T12:26:16.320Z,18.91
2023-03-26T12:28:19.455Z,18.91
2023-03-26T12:30:24.737Z,18.84
2023-03-26T12:32:43.349Z,18.72
2023-03-26T12:34:49.374Z,18.66
2023-03-26T12:36:56.005Z,18.67
2023-03-26T12:39:16.954Z,18.68
2023-03-26T12:44:41.741Z,18.66
2023-03-26T12:44:50.338Z,18.66
2023-03-26T12:47:56.464Z,18.69
2023-03-26T12:49:05.090Z,18.62
2023-03-26T12:51:16.594Z,18.59
2023-03-26T12:53:43.451Z,18.59
2023-03-26T12:55:58.689Z,18.59
2023-03-26T12:58:16.177Z,18.58
2023-03-26T13:00:42.679Z,18.62
2023-03-26T13:03:07.233Z,18.75
2023-03-26T13:05:27.315Z,18.82
2023-03-26T13:07:41.844Z,18.95
2023-03-26T13:10:07.924Z,19.10
2023-03-26T13:12:23.153Z,19.18
2023-03-26T13:14:43.391Z,19.20
2023-03-26T13:16:54.441Z,19.26
2023-03-26T13:19:02.531Z,19.27
2023-03-26T13:21:11.615Z,19.25
2023-03-26T13:23:29.288Z,19.22
2023-03-26T13:25:43.017Z,19.19
2023-03-26T13:27:56.814Z,19.17
2023-03-26T13:30:10.396Z,19.04
2023-03-26T13:32:24.601Z,18.97
2023-03-26T13:34:35.914Z,18.91
2023-03-26T13:36:49.371Z,18.92
2023-03-26T13:39:14.126Z,18.92
2023-03-26T13:41:26.449Z,18.90
2023-03-26T13:43:49.211Z,18.85
2023-03-26T13:46:01.799Z,18.72
2023-03-26T13:48:10.547Z,18.64
2023-03-26T13:50:24.261Z,18.63
2023-03-26T13:52:32.474Z,18.56
2023-03-26T13:54:42.288Z,18.44
2023-03-26T13:56:54.101Z,18.39
2023-03-26T13:59:02.152Z,18.39
2023-03-26T14:01:10.324Z,18.39
2023-03-26T14:03:22.499Z,18.31
2023-03-26T14:05:30.180Z,18.23
2023-03-26T14:07:40.419Z,18.16
2023-03-26T14:09:50.631Z,18.16
2023-03-26T14:12:28.299Z,18.17
2023-03-26T14:14:40.760Z,18.15
2023-03-26T14:16:48.495Z,18.15
2023-03-26T14:19:00.649Z,18.17
2023-03-26T14:21:37.594Z,18.23
2023-03-26T14:23:55.910Z,18.28
2023-03-26T14:26:17.921Z,18.32
2023-03-26T14:28:37.099Z,18.37
2023-03-26T14:30:53.881Z,18.43
2023-03-26T14:33:15.342Z,18.51
2023-03-26T14:35:36.252Z,18.59
2023-03-26T14:38:02.539Z,18.64
2023-03-26T14:40:26.028Z,18.64
2023-03-26T14:42:41.538Z,18.60
2023-03-26T14:45:16.088Z,18.56
2023-03-26T14:47:23.764Z,18.48
2023-03-26T14:50:07.914Z,18.46
2023-03-26T14:52:19.264Z,18.45
2023-03-26T14:54:26.525Z,18.43
2023-03-26T14:56:50.100Z,18.42
2023-03-26T14:59:27.271Z,18.38
2023-03-26T15:01:54.595Z,18.27
2023-03-26T15:04:40.237Z,18.16
2023-03-26T15:07:15.087Z,18.10
2023-03-26T15:09:56.117Z,18.10
2023-03-26T15:12:12.289Z,18.06
2023-03-26T15:14:49.662Z,17.99
2023-03-26T15:17:24.907Z,17.89
2023-03-26T15:20:14.959Z,17.80
2023-03-26T15:22:55.121Z,17.75
2023-03-26T15:25:41.433Z,17.73
2023-03-26T15:28:23.149Z,17.72
2023-03-26T15:31:01.735Z,17.66
2023-03-26T15:33:33.498Z,17.62
2023-03-26T15:36:00.482Z,17.54
2023-03-26T15:38:38.888Z,17.43
2023-03-26T15:40:51.095Z,17.36
2023-03-26T15:43:09.833Z,17.30
2023-03-26T15:45:30.777Z,17.25
2023-03-26T15:47:50.521Z,17.22
2023-03-26T15:49:59.748Z,17.21
2023-03-26T15:52:15.636Z,17.16
2023-03-26T15:54:40.251Z,17.05
2023-03-26T15:57:02.075Z,16.87
2023-03-26T15:59:14.323Z,16.71
2023-03-26T16:01:37.311Z,16.59
2023-03-26T16:03:48.079Z,16.50
2023-03-26T16:06:28.446Z,16.38
2023-03-26T16:08:41.173Z,16.24
2023-03-26T16:10:54.036Z,16.14
2023-03-26T16:13:29.008Z,16.05
2023-03-26T16:15:37.157Z,15.94
2023-03-26T16:18:27.013Z,15.82
2023-03-26T16:20:34.808Z,15.69
2023-03-26T16:22:55.105Z,15.63
2023-03-26T16:25:32.052Z,15.57
2023-03-26T16:27:37.017Z,15.52
2023-03-26T16:30:16.667Z,15.52
2023-03-26T16:32:27.894Z,15.48
2023-03-26T16:34:40.603Z,15.45
2023-03-26T16:36:47.644Z,15.41
2023-03-26T16:39:11.256Z,15.32
2023-03-26T16:41:19.336Z,15.22
2023-03-26T16:44:03.613Z,15.14
2023-03-26T16:46:16.108Z,15.04
2023-03-26T16:48:30.318Z,14.96
2023-03-26T16:50:47.226Z,14.88
2023-03-26T16:53:02.242Z,14.82
2023-03-26T16:55:17.606Z,14.78
2023-03-26T16:57:28.429Z,14.70
2023-03-26T17:00:05.457Z,14.65
2023-03-26T17:02:21.715Z,14.57
2023-03-26T17:04:31.505Z,14.52
2023-03-26T17:07:07.344Z,14.46
2023-03-26T17:09:24.723Z,14.41
2023-03-26T17:11:42.088Z,14.38
2023-03-26T17:13:55.618Z,14.34
2023-03-26T17:16:11.945Z,14.31
2023-03-26T17:18:35.635Z,14.28
2023-03-26T17:20:50.489Z,14.21
2023-03-26T17:23:04.669Z,14.12
2023-03-26T17:25:21.185Z,14.06
2023-03-26T17:27:46.139Z,14.02
2023-03-26T17:30:02.303Z,13.98
2023-03-26T17:32:10.348Z,13.97
2023-03-26T17:34:55.259Z,13.97
2023-03-26T17:37:00.405Z,13.94
2023-03-26T17:39:20.410Z,13.89
2023-03-26T17:42:13.395Z,13.86
2023-03-26T17:44:41.115Z,13.79
2023-03-26T17:46:48.432Z,13.72
2023-03-26T17:49:00.028Z,13.68
2023-03-26T17:51:14.325Z,13.63
2023-03-26T17:53:30.596Z,13.56
2023-03-26T17:55:39.064Z,13.53
2023-03-26T17:57:47.561Z,13.49
2023-03-26T17:59:58.323Z,13.43
2023-03-26T18:02:13.334Z,13.39
2023-03-26T18:04:25.152Z,13.35
2023-03-26T18:06:53.616Z,13.34
2023-03-26T18:09:11.025Z,13.32
2023-03-26T18:11:35.652Z,13.29
2023-03-26T18:14:04.088Z,13.26
2023-03-26T18:16:15.382Z,13.22
2023-03-26T18:18:23.182Z,13.21
2023-03-26T18:20:29.727Z,13.19
2023-03-26T18:22:34.748Z,13.17
2023-03-26T18:24:44.632Z,13.16
2023-03-26T18:26:58.764Z,13.14
2023-03-26T18:29:19.710Z,13.09
2023-03-26T18:31:26.739Z,13.07
2023-03-26T18:33:44.198Z,13.04
2023-03-26T18:35:54.676Z,13.00
2023-03-26T18:37:59.818Z,13.00
2023-03-26T18:40:12.018Z,12.98
2023-03-26T18:42:23.589Z,12.97
2023-03-26T18:44:52.150Z,12.96
2023-03-26T18:46:57.053Z,12.92
2023-03-26T18:49:03.252Z,12.91
2023-03-26T18:51:15.954Z,12.91
2023-03-26T18:53:30.502Z,12.88
2023-03-26T18:55:37.601Z,12.84
2023-03-26T18:57:50.558Z,12.82
2023-03-26T19:00:05.455Z,12.82
2023-03-26T19:02:14.594Z,12.79
2023-03-26T19:04:27.469Z,12.78
2023-03-26T19:06:38.359Z,12.75
2023-03-26T19:08:45.481Z,12.72
2023-03-26T19:10:50.816Z,12.71
2023-03-26T19:13:00.940Z,12.71
2023-03-26T19:15:10.528Z,12.68
2023-03-26T19:17:14.928Z,12.67
2023-03-26T19:19:21.938Z,12.64
2023-03-26T19:21:27.248Z,12.60
2023-03-26T19:23:36.145Z,12.59
2023-03-26T19:25:43.356Z,12.58
2023-03-26T19:27:48.358Z,12.57
2023-03-26T19:29:54.761Z,12.55
2023-03-26T19:32:08.033Z,12.56
2023-03-26T19:34:25.894Z,12.56
2023-03-26T19:36:32.890Z,12.52
2023-03-26T19:38:44.952Z,12.52
2023-03-26T19:40:48.914Z,12.51
2023-03-26T19:42:54.777Z,12.50
2023-03-26T19:45:00.113Z,12.49
2023-03-26T19:47:08.944Z,12.49
2023-03-26T19:49:28.332Z,12.49
2023-03-26T19:51:35.625Z,12.49
2023-03-26T19:53:47.807Z,12.48
2023-03-26T19:55:58.307Z,12.47
2023-03-26T19:58:04.926Z,12.48
2023-03-26T20:00:14.322Z,12.49
2023-03-26T20:02:18.688Z,12.50
2023-03-26T20:04:24.225Z,12.51
2023-03-26T20:06:42.278Z,12.51
2023-03-26T20:08:49.983Z,12.51
2023-03-26T20:10:56.210Z,12.52
2023-03-26T20:12:59.723Z,12.51
2023-03-26T20:15:19.544Z,12.52
2023-03-26T20:17:23.651Z,12.52
2023-03-26T20:19:28.148Z,12.52
2023-03-26T20:21:32.800Z,12.49
2023-03-26T20:23:39.751Z,12.47
2023-03-26T20:25:49.884Z,12.45
2023-03-26T20:27:54.665Z,12.44
2023-03-26T20:30:01.007Z,12.43
2023-03-26T20:32:06.512Z,12.43
2023-03-26T20:34:16.315Z,12.40
2023-03-26T20:36:34.126Z,12.35
2023-03-26T20:38:42.237Z,12.30
2023-03-26T20:40:45.993Z,12.28
2023-03-26T20:42:50.269Z,12.24
2023-03-26T20:44:54.225Z,12.22
2023-03-26T20:46:57.926Z,12.21
2023-03-26T20:49:01.688Z,12.21
2023-03-26T20:51:10.605Z,12.21
2023-03-26T20:53:14.919Z,12.22
2023-03-26T20:55:20.044Z,12.20
2023-03-26T20:57:23.117Z,12.19
2023-03-26T20:59:27.254Z,12.17
2023-03-26T21:01:30.670Z,12.16
2023-03-26T21:03:33.449Z,12.14
2023-03-26T21:05:36.041Z,12.14
2023-03-26T21:07:39.667Z,12.15
2023-03-26T21:09:43.382Z,12.14
2023-03-26T21:11:53.838Z,12.16
2023-03-26T21:13:59.799Z,12.17
2023-03-26T21:16:03.402Z,12.17
2023-03-26T21:18:10.582Z,12.17
2023-03-26T21:20:16.722Z,12.16
2023-03-26T21:22:29.597Z,12.17
2023-03-26T21:24:48.836Z,12.15
2023-03-26T21:26:58.378Z,12.14
2023-03-26T21:29:01.575Z,12.12
2023-03-26T21:31:10.907Z,12.10
2023-03-26T21:33:13.609Z,12.09
2023-03-26T21:35:17.820Z,12.09
2023-03-26T21:37:21.504Z,12.08
2023-03-26T21:39:25.262Z,12.07
2023-03-26T21:41:40.642Z,12.06
2023-03-26T21:43:43.257Z,12.05
2023-03-26T21:45:47.846Z,12.04
2023-03-26T21:47:51.773Z,12.03
2023-03-26T21:49:55.712Z,12.01
2023-03-26T21:51:59.434Z,11.99
2023-03-26T21:54:03.098Z,11.99
2023-03-26T21:56:17.786Z,11.96
2023-03-26T21:58:32.362Z,11.95
2023-03-26T22:00:45.305Z,11.95
2023-03-26T22:03:00.716Z,11.93
2023-03-26T22:05:11.186Z,11.92
2023-03-26T22:07:18.270Z,11.89
2023-03-26T22:09:30.107Z,11.89
2023-03-26T22:11:38.617Z,11.87
2023-03-26T22:13:41.257Z,11.85
2023-03-26T22:15:43.903Z,11.87
2023-03-26T22:17:47.510Z,11.88
2023-03-26T22:19:52.532Z,11.89
2023-03-26T22:21:55.151Z,11.88
2023-03-26T22:23:57.873Z,11.89
2023-03-26T22:26:00.593Z,11.90
2023-03-26T22:28:03.372Z,11.90
2023-03-26T22:30:08.941Z,11.90
2023-03-26T22:32:14.057Z,11.91
2023-03-26T22:34:16.678Z,11.91
2023-03-26T22:36:22.626Z,11.91
2023-03-26T22:38:26.199Z,11.90
2023-03-26T22:40:28.981Z,11.90
2023-03-26T22:42:31.584Z,11.91
2023-03-26T22:44:34.216Z,11.90
2023-03-26T22:46:36.886Z,11.89
2023-03-26T22:48:39.569Z,11.89
2023-03-26T22:50:42.257Z,11.87
2023-03-26T22:52:44.880Z,11.87
2023-03-26T22:54:47.482Z,11.87
2023-03-26T22:56:50.136Z,11.89
2023-03-26T22:58:52.739Z,11.90
2023-03-26T23:01:03.720Z,11.91
2023-03-26T23:03:07.323Z,11.90
2023-03-26T23:05:10.695Z,11.88
2023-03-26T23:07:16.104Z,11.86
2023-03-26T23:09:18.731Z,11.84
2023-03-26T23:11:21.949Z,11.84
2023-03-26T23:13:24.834Z,11.84
2023-03-26T23:15:27.452Z,11.84
2023-03-26T23:17:34.390Z,11.85
2023-03-26T23:19:36.985Z,11.84
2023-03-26T23:21:39.548Z,11.83
2023-03-26T23:23:42.172Z,11.84
2023-03-26T23:25:45.076Z,11.82
2023-03-26T23:27:47.708Z,11.83
2023-03-26T23:29:50.272Z,11.81
2023-03-26T23:31:53.006Z,11.81
2023-03-26T23:33:55.826Z,11.78
2023-03-26T23:35:58.949Z,11.76
2023-03-26T23:38:01.537Z,11.76
2023-03-26T23:40:05.810Z,11.76
2023-03-26T23:42:08.392Z,11.74
2023-03-26T23:44:11.125Z,11.73
2023-03-26T23:46:13.814Z,11.71
2023-03-26T23:48:21.373Z,11.69
2023-03-26T23:50:24.401Z,11.68
2023-03-26T23:52:27.060Z,11.67
2023-03-26T23:54:29.738Z,11.67
2023-03-26T23:56:32.536Z,11.67
2023-03-26T23:58:35.328Z,11.66
